createdAt,value
2023-02-13T00:00:30.739Z,102149.63
2023-02-13T00:01:11.693Z,102137.75
2023-02-13T00:01:51.788Z,102137.88
2023-02-13T00:02:31.759Z,102137.88
2023-02-13T00:03:12.830Z,102141.78
2023-02-13T00:03:52.796Z,102137.41
2023-02-13T00:04:32.766Z,102140.41
2023-02-13T00:05:13.699Z,102135.47
2023-02-13T00:05:53.823Z,102123.59
2023-02-13T00:06:33.713Z,102133.72
2023-02-13T00:07:15.761Z,102130.34
2023-02-13T00:07:55.726Z,102138.00
2023-02-13T00:08:35.823Z,102131.75
2023-02-13T00:09:17.750Z,102122.13
2023-02-13T00:09:57.781Z,102135.63
2023-02-13T00:10:38.674Z,102137.50
2023-02-13T00:11:18.871Z,102137.22
2023-02-13T00:12:01.333Z,102136.50
2023-02-13T00:12:41.847Z,102130.97
2023-02-13T00:13:22.743Z,102132.22
2023-02-13T00:14:02.804Z,102135.94
2023-02-13T00:14:44.741Z,102141.16
2023-02-13T00:15:25.841Z,102131.84
2023-02-13T00:16:08.774Z,102134.16
2023-02-13T00:16:48.776Z,102133.75
2023-02-13T00:17:28.715Z,102121.31
2023-02-13T00:18:09.753Z,102136.81
2023-02-13T00:18:49.917Z,102127.78
2023-02-13T00:19:30.768Z,102098.25
2023-02-13T00:20:12.694Z,102123.25
2023-02-13T00:20:52.850Z,102104.06
2023-02-13T00:21:32.672Z,102127.06
2023-02-13T00:22:12.838Z,102133.00
2023-02-13T00:22:52.826Z,102124.72
2023-02-13T00:23:33.807Z,102119.91
2023-02-13T00:24:13.680Z,102132.13
2023-02-13T00:24:53.759Z,102123.84
2023-02-13T00:25:34.736Z,102133.25
2023-02-13T00:26:21.766Z,102138.25
2023-02-13T00:27:01.685Z,102134.44
2023-02-13T00:30:12.721Z,102131.47
2023-02-13T00:31:17.077Z,102136.66
2023-02-13T00:32:03.823Z,102139.50
2023-02-13T00:32:37.817Z,102142.19
2023-02-13T00:33:24.689Z,102137.53
2023-02-13T00:34:05.720Z,102135.78
2023-02-13T00:34:45.667Z,102138.34
2023-02-13T00:35:32.739Z,102148.00
2023-02-13T00:36:17.142Z,102143.53
2023-02-13T00:37:03.655Z,102132.03
2023-02-13T00:37:37.435Z,102141.91
2023-02-13T00:38:24.690Z,102122.78
2023-02-13T00:38:58.355Z,102140.75
2023-02-13T00:39:45.647Z,102128.25
2023-02-13T00:40:19.415Z,102140.84
2023-02-13T00:40:59.820Z,102144.03
2023-02-13T00:41:33.788Z,102139.25
2023-02-13T00:42:07.404Z,102141.06
2023-02-13T00:42:47.664Z,102139.13
2023-02-13T00:43:21.734Z,102143.84
2023-02-13T00:43:55.371Z,102140.28
2023-02-13T00:44:36.661Z,102144.03
2023-02-13T00:45:10.782Z,102144.03
2023-02-13T00:45:44.351Z,102144.31
2023-02-13T00:46:25.749Z,102140.41
2023-02-13T00:46:59.802Z,102142.03
2023-02-13T00:47:33.427Z,102142.59
2023-02-13T00:48:13.695Z,102140.59
2023-02-13T00:48:47.765Z,102139.25
2023-02-13T00:49:21.412Z,102111.47
2023-02-13T00:50:01.714Z,102137.69
2023-02-13T00:50:35.679Z,102123.34
2023-02-13T00:51:09.952Z,102119.63
2023-02-13T00:51:49.780Z,102133.91
2023-02-13T00:52:23.748Z,102102.88
2023-02-13T00:52:58.378Z,102127.00
2023-02-13T00:53:40.602Z,102136.44
2023-02-13T00:54:14.930Z,102108.28
2023-02-13T00:54:48.647Z,102128.44
2023-02-13T00:55:28.664Z,102136.31
2023-02-13T00:56:02.742Z,102118.53
2023-02-13T00:56:36.404Z,102128.06
2023-02-13T00:57:17.677Z,102130.28
2023-02-13T00:57:51.710Z,102123.16
2023-02-13T00:58:25.461Z,102126.53
2023-02-13T00:59:05.746Z,102126.09
2023-02-13T00:59:39.665Z,102129.06
2023-02-13T01:00:14.310Z,102130.69
2023-02-13T01:00:54.665Z,102133.09
2023-02-13T01:01:35.767Z,102121.66
2023-02-13T01:02:15.656Z,102110.50
2023-02-13T01:02:55.650Z,102116.19
2023-02-13T01:03:29.820Z,102130.84
2023-02-13T01:04:03.496Z,102127.63
2023-02-13T01:04:43.632Z,102129.22
2023-02-13T01:05:17.695Z,102129.06
2023-02-13T01:05:52.923Z,102123.09
2023-02-13T01:06:32.630Z,102130.19
2023-02-13T01:07:06.712Z,102111.34
2023-02-13T01:07:46.692Z,102109.59
2023-02-13T01:08:28.557Z,102123.31
2023-02-13T01:09:10.628Z,102126.47
2023-02-13T01:09:51.794Z,102115.84
2023-02-13T01:10:32.622Z,102129.44
2023-02-13T01:11:13.752Z,102117.97
2023-02-13T01:11:53.918Z,102117.88
2023-02-13T01:12:33.724Z,102113.56
2023-02-13T01:13:14.732Z,102113.75
2023-02-13T01:13:55.807Z,102109.53
2023-02-13T01:14:35.656Z,102122.22
2023-02-13T01:15:16.721Z,102121.00
2023-02-13T01:15:57.639Z,102114.94
2023-02-13T01:16:37.736Z,102115.78
2023-02-13T01:17:17.610Z,102111.53
2023-02-13T01:18:01.714Z,102113.34
2023-02-13T01:18:41.659Z,102113.78
2023-02-13T01:19:21.726Z,102098.19
2023-02-13T01:20:01.684Z,102109.22
2023-02-13T01:20:41.691Z,102116.16
2023-02-13T01:21:27.650Z,102120.88
2023-02-13T01:22:08.732Z,102117.38
2023-02-13T01:22:50.643Z,102108.72
2023-02-13T01:23:30.905Z,102121.47
2023-02-13T01:24:12.645Z,102119.13
2023-02-13T01:24:52.725Z,102122.47
2023-02-13T01:25:33.656Z,102125.50
2023-02-13T01:26:15.687Z,102117.22
2023-02-13T01:26:55.678Z,102119.19
2023-02-13T01:27:38.167Z,102117.09
2023-02-13T01:28:18.692Z,102104.72
2023-02-13T01:29:00.859Z,102120.50
2023-02-13T01:29:40.611Z,102113.66
2023-02-13T01:30:24.696Z,102112.53
2023-02-13T01:31:05.752Z,102110.69
2023-02-13T01:31:45.816Z,102117.41
2023-02-13T01:32:25.650Z,102104.88
2023-02-13T01:33:05.674Z,102115.94
2023-02-13T01:33:45.623Z,102097.53
2023-02-13T01:34:26.748Z,102109.00
2023-02-13T01:35:06.686Z,102111.22
2023-02-13T01:35:46.716Z,102101.44
2023-02-13T01:36:26.599Z,102092.56
2023-02-13T01:37:06.692Z,102111.81
2023-02-13T01:37:46.616Z,102109.59
2023-02-13T01:38:27.648Z,102109.91
2023-02-13T01:39:07.630Z,102115.44
2023-02-13T01:39:47.795Z,102108.44
2023-02-13T01:40:27.731Z,102113.81
2023-02-13T01:41:07.832Z,102115.25
2023-02-13T01:41:47.606Z,102096.06
2023-02-13T01:42:34.650Z,102109.00
2023-02-13T01:43:17.613Z,102103.47
2023-02-13T01:44:04.702Z,102112.88
2023-02-13T01:45:22.614Z,102114.84
2023-02-13T01:46:03.601Z,102075.50
2023-02-13T01:46:44.728Z,102101.03
2023-02-13T01:47:41.270Z,102088.06
2023-02-13T01:48:27.592Z,102099.09
2023-02-13T01:49:06.806Z,102102.25
2023-02-13T01:49:41.354Z,102077.59
2023-02-13T01:50:32.602Z,102103.88
2023-02-13T01:51:18.616Z,102100.13
2023-02-13T01:51:54.767Z,102092.25
2023-02-13T01:52:42.737Z,102107.63
2023-02-13T01:53:26.553Z,102097.34
2023-02-13T01:54:14.579Z,102104.28
2023-02-13T01:54:48.408Z,102072.56
2023-02-13T01:55:35.656Z,102087.59
2023-02-13T01:56:49.643Z,102089.13
2023-02-13T01:57:44.839Z,102094.59
2023-02-13T01:58:44.560Z,102062.66
2023-02-13T01:59:45.574Z,102094.88
2023-02-13T02:00:39.615Z,102091.03
2023-02-13T02:01:34.805Z,102093.88
2023-02-13T02:02:15.752Z,102092.84
2023-02-13T02:03:09.274Z,102060.53
2023-02-13T02:03:56.566Z,102084.63
2023-02-13T02:04:42.639Z,102092.84
2023-02-13T02:05:24.575Z,102098.34
2023-02-13T02:06:05.684Z,102100.25
2023-02-13T02:06:54.573Z,102095.41
2023-02-13T02:07:36.591Z,102092.78
2023-02-13T02:08:14.724Z,102098.69
2023-02-13T02:09:04.572Z,102067.72
2023-02-13T02:09:44.194Z,102097.94
2023-02-13T02:10:31.567Z,102100.72
2023-02-13T02:11:37.604Z,102096.75
2023-02-13T02:12:40.595Z,102079.69
2023-02-13T02:13:22.747Z,102080.75
2023-02-13T02:14:10.617Z,102085.72
2023-02-13T02:14:45.654Z,102094.59
2023-02-13T02:15:33.580Z,102059.44
2023-02-13T02:16:07.766Z,102090.69
2023-02-13T02:16:54.570Z,102086.25
2023-02-13T02:17:30.653Z,102091.63
2023-02-13T02:18:20.782Z,102050.69
2023-02-13T02:19:00.667Z,102051.72
2023-02-13T02:20:19.567Z,102071.81
2023-02-13T02:21:26.605Z,102076.09
2023-02-13T02:22:09.598Z,102081.69
2023-02-13T02:23:29.555Z,102075.38
2023-02-13T02:25:00.601Z,102069.44
2023-02-13T02:26:34.609Z,102073.06
2023-02-13T02:27:38.558Z,102063.66
2023-02-13T02:29:04.607Z,102078.28
2023-02-13T02:30:27.582Z,102054.09
2023-02-13T02:32:18.572Z,102072.34
2023-02-13T02:33:31.570Z,102070.41
2023-02-13T02:35:06.587Z,102063.25
2023-02-13T02:36:26.797Z,102072.53
2023-02-13T02:37:50.560Z,102075.00
2023-02-13T02:39:08.611Z,102049.69
2023-02-13T02:40:22.563Z,102069.34
2023-02-13T02:41:40.212Z,102055.19
2023-02-13T02:42:43.578Z,102064.25
2023-02-13T02:43:44.628Z,102071.97
2023-02-13T02:44:50.534Z,102082.72
2023-02-13T02:45:56.641Z,102053.19
2023-02-13T02:47:01.512Z,102087.13
2023-02-13T02:48:22.543Z,102070.66
2023-02-13T02:49:33.526Z,102089.13
2023-02-13T02:50:44.522Z,102088.94
2023-02-13T02:51:57.575Z,102083.00
2023-02-13T02:52:50.634Z,102082.84
2023-02-13T02:54:36.568Z,102072.00
2023-02-13T02:56:05.678Z,102081.69
2023-02-13T02:56:48.524Z,102071.06
2023-02-13T02:57:57.561Z,102051.72
2023-02-13T02:59:00.076Z,102050.78
2023-02-13T02:59:55.746Z,102080.59
2023-02-13T03:00:54.597Z,102082.41
2023-02-13T03:01:50.251Z,102075.81
2023-02-13T03:02:48.965Z,102063.19
2023-02-13T03:03:48.606Z,102083.13
2023-02-13T03:05:06.519Z,102077.91
2023-02-13T03:06:00.171Z,102071.72
2023-02-13T03:07:03.571Z,102085.56
2023-02-13T03:07:37.594Z,102081.63
2023-02-13T03:08:11.444Z,102065.69
2023-02-13T03:09:21.561Z,102051.56
2023-02-13T03:10:17.985Z,102078.09
2023-02-13T03:11:10.890Z,102056.25
2023-02-13T03:12:14.515Z,102068.22
2023-02-13T03:13:21.630Z,102070.22
2023-02-13T03:13:55.794Z,102075.31
2023-02-13T03:14:36.539Z,102071.44
2023-02-13T03:15:11.545Z,102064.84
2023-02-13T03:16:05.159Z,102076.75
2023-02-13T03:17:04.496Z,102083.16
2023-02-13T03:17:57.249Z,102068.25
2023-02-13T03:18:53.979Z,102073.75
2023-02-13T03:20:12.593Z,102059.28
2023-02-13T03:21:27.404Z,102068.88
2023-02-13T03:22:18.873Z,102082.19
2023-02-13T03:23:41.528Z,102092.41
2023-02-13T03:24:34.591Z,102071.97
2023-02-13T03:25:36.521Z,102081.16
2023-02-13T03:26:46.289Z,102073.75
2023-02-13T03:28:22.531Z,102088.00
2023-02-13T03:29:47.428Z,102091.94
2023-02-13T03:31:06.610Z,102087.91
2023-02-13T03:32:03.554Z,102083.00
2023-02-13T03:32:54.488Z,102089.00
2023-02-13T03:33:51.569Z,102071.88
2023-02-13T03:35:05.498Z,102093.63
2023-02-13T03:36:06.063Z,102048.91
2023-02-13T03:37:21.566Z,102085.19
2023-02-13T03:38:29.526Z,102074.69
2023-02-13T03:39:45.471Z,102089.22
2023-02-13T03:41:14.446Z,102090.44
2023-02-13T03:42:19.456Z,102082.09
2023-02-13T03:43:17.529Z,102064.59
2023-02-13T03:44:39.560Z,102082.22
2023-02-13T03:45:46.524Z,102078.34
2023-02-13T03:46:26.541Z,102078.59
2023-02-13T03:47:09.467Z,102077.59
2023-02-13T03:47:51.562Z,102078.06
2023-02-13T03:48:51.099Z,102076.84
2023-02-13T03:50:12.522Z,102083.47
2023-02-13T03:50:50.537Z,102078.34
2023-02-13T03:51:49.472Z,102060.44
2023-02-13T03:52:45.571Z,102081.81
2023-02-13T03:53:26.549Z,102074.81
2023-02-13T03:54:11.525Z,102089.69
2023-02-13T03:55:16.494Z,102084.91
2023-02-13T03:56:15.937Z,102064.63
2023-02-13T03:57:16.485Z,102064.47
2023-02-13T03:58:19.325Z,102082.72
2023-02-13T03:59:20.451Z,102087.91
2023-02-13T04:00:02.541Z,102083.88
2023-02-13T04:00:57.779Z,102072.78
2023-02-13T04:01:41.529Z,102063.09
2023-02-13T04:02:26.472Z,102082.59
2023-02-13T04:03:31.613Z,102058.78
2023-02-13T04:04:21.507Z,102082.81
2023-02-13T04:05:20.537Z,102084.50
2023-02-13T04:06:08.448Z,102079.53
2023-02-13T04:07:07.567Z,102084.34
2023-02-13T04:07:47.448Z,102048.31
2023-02-13T04:08:27.530Z,102066.53
2023-02-13T04:09:07.442Z,102075.41
2023-02-13T04:09:49.515Z,102071.25
2023-02-13T04:10:25.556Z,102081.72
2023-02-13T04:11:34.453Z,102083.88
2023-02-13T04:12:26.514Z,102078.66
2023-02-13T04:13:33.477Z,102079.13
2023-02-13T04:14:14.545Z,102087.59
2023-02-13T04:15:28.482Z,102044.44
2023-02-13T04:16:09.519Z,102065.84
2023-02-13T04:17:22.478Z,102071.06
2023-02-13T04:18:05.568Z,102074.41
2023-02-13T04:18:52.439Z,102067.09
2023-02-13T04:19:27.580Z,102084.22
2023-02-13T04:20:15.427Z,102082.31
2023-02-13T04:20:56.729Z,102062.50
2023-02-13T04:21:53.429Z,102073.59
2023-02-13T04:22:47.453Z,102075.47
2023-02-13T04:23:41.443Z,102081.47
2023-02-13T04:24:35.444Z,102083.75
2023-02-13T04:25:31.431Z,102081.72
2023-02-13T04:26:28.578Z,102070.91
2023-02-13T04:27:02.505Z,102075.59
2023-02-13T04:27:50.439Z,102083.47
2023-02-13T04:28:24.497Z,102076.34
2023-02-13T04:29:12.442Z,102083.56
2023-02-13T04:29:46.613Z,102076.16
2023-02-13T04:30:33.539Z,102075.47
2023-02-13T04:31:07.569Z,102078.19
2023-02-13T04:31:48.546Z,102045.13
2023-02-13T04:32:29.110Z,102069.03
2023-02-13T04:33:09.457Z,102084.16
2023-02-13T04:33:49.506Z,102074.91
2023-02-13T04:34:29.443Z,102070.78
2023-02-13T04:35:11.509Z,102058.94
2023-02-13T04:35:52.498Z,102073.75
2023-02-13T04:36:32.507Z,102065.94
2023-02-13T04:37:12.452Z,102076.72
2023-02-13T04:37:52.494Z,102076.31
2023-02-13T04:38:32.465Z,102079.53
2023-02-13T04:39:12.503Z,102052.31
2023-02-13T04:39:53.486Z,102067.53
2023-02-13T04:40:33.477Z,102068.38
2023-02-13T04:41:13.401Z,102067.63
2023-02-13T04:41:53.468Z,102077.03
2023-02-13T04:42:33.443Z,102074.69
2023-02-13T04:43:13.538Z,102072.81
2023-02-13T04:43:54.435Z,102058.84
2023-02-13T04:44:34.499Z,102062.91
2023-02-13T04:45:15.419Z,102060.81
2023-02-13T04:45:56.602Z,102058.41
2023-02-13T04:46:36.401Z,102076.31
2023-02-13T04:47:17.492Z,102077.09
2023-02-13T04:48:00.493Z,102073.56
2023-02-13T04:48:40.477Z,102063.06
2023-02-13T04:49:21.433Z,102075.75
2023-02-13T04:50:01.541Z,102062.00
2023-02-13T04:50:41.447Z,102066.34
2023-02-13T04:51:21.496Z,102067.44
2023-02-13T04:52:02.469Z,102068.75
2023-02-13T04:52:42.508Z,102058.75
2023-02-13T04:53:22.484Z,102058.84
2023-02-13T04:54:02.467Z,102061.44
2023-02-13T04:54:42.401Z,102072.19
2023-02-13T04:55:22.646Z,102076.84
2023-02-13T04:56:03.415Z,102058.41
2023-02-13T04:56:43.762Z,102065.94
2023-02-13T04:57:23.411Z,102070.03
2023-02-13T04:58:03.451Z,102066.09
2023-02-13T04:58:43.403Z,102043.53
2023-02-13T04:59:23.463Z,102071.84
2023-02-13T05:00:04.464Z,102062.59
2023-02-13T05:00:44.477Z,102071.53
2023-02-13T05:01:25.434Z,102075.56
2023-02-13T05:02:05.478Z,102060.50
2023-02-13T05:02:46.474Z,102068.09
2023-02-13T05:03:26.487Z,102075.03
2023-02-13T05:04:07.519Z,102075.88
2023-02-13T05:04:47.480Z,102070.50
2023-02-13T05:05:28.410Z,102074.75
2023-02-13T05:06:08.483Z,102076.31
2023-02-13T05:06:49.390Z,102085.47
2023-02-13T05:07:29.550Z,102061.84
2023-02-13T05:08:11.412Z,102070.19
2023-02-13T05:08:51.540Z,102066.22
2023-02-13T05:09:32.501Z,102073.06
2023-02-13T05:10:13.503Z,102071.34
2023-02-13T05:10:54.425Z,102055.75
2023-02-13T05:11:34.462Z,102071.59
2023-02-13T05:12:15.454Z,102067.78
2023-02-13T05:12:55.431Z,102066.34
2023-02-13T05:13:35.354Z,102060.84
2023-02-13T05:14:17.436Z,102064.69
2023-02-13T05:14:57.467Z,102073.63
2023-02-13T05:15:37.507Z,102061.19
2023-02-13T05:16:18.417Z,102036.44
2023-02-13T05:16:58.475Z,102066.34
2023-02-13T05:17:38.401Z,102065.28
2023-02-13T05:18:18.441Z,102054.81
2023-02-13T05:19:01.355Z,102069.91
2023-02-13T05:19:41.491Z,102070.53
2023-02-13T05:20:22.438Z,102067.69
2023-02-13T05:21:20.808Z,102069.31
2023-02-13T05:22:19.416Z,102067.31
2023-02-13T05:23:20.123Z,102036.28
2023-02-13T05:24:00.558Z,102065.56
2023-02-13T05:24:41.469Z,102057.69
2023-02-13T05:25:21.548Z,102043.50
2023-02-13T05:26:01.365Z,102055.72
2023-02-13T05:26:35.535Z,102056.53
2023-02-13T05:27:22.338Z,102056.75
2023-02-13T05:27:56.446Z,102035.69
2023-02-13T05:29:02.353Z,102043.38
2023-02-13T05:29:36.421Z,102053.03
2023-02-13T05:30:23.440Z,102036.66
2023-02-13T05:30:57.959Z,102040.53
2023-02-13T05:31:45.471Z,102040.53
2023-02-13T05:32:19.470Z,102043.38
2023-02-13T05:33:06.378Z,102048.31
2023-02-13T05:33:40.394Z,102043.75
2023-02-13T05:34:29.396Z,102045.78
2023-02-13T05:35:04.532Z,102045.22
2023-02-13T05:35:44.380Z,102041.56
2023-02-13T05:36:24.455Z,102049.53
2023-02-13T05:37:05.426Z,102033.75
2023-02-13T05:37:45.423Z,102046.94
2023-02-13T05:38:26.333Z,102036.25
2023-02-13T05:39:07.419Z,102049.94
2023-02-13T05:39:47.382Z,102048.78
2023-02-13T05:40:27.880Z,102033.88
2023-02-13T05:41:09.621Z,102048.00
2023-02-13T05:41:50.458Z,102051.84
2023-02-13T05:42:31.405Z,102051.59
2023-02-13T05:43:11.509Z,102033.88
2023-02-13T05:43:51.412Z,102049.16
2023-02-13T05:44:31.464Z,102035.44
2023-02-13T05:45:12.366Z,102036.50
2023-02-13T05:45:52.489Z,102058.94
2023-02-13T05:46:33.617Z,102051.16
2023-02-13T05:47:13.489Z,102062.22
2023-02-13T05:47:53.402Z,102068.75
2023-02-13T05:48:33.477Z,102043.69
2023-02-13T05:49:15.392Z,102068.50
2023-02-13T05:49:55.472Z,102053.56
2023-02-13T05:50:36.362Z,102045.22
2023-02-13T05:51:16.432Z,102054.66
2023-02-13T05:51:58.441Z,102068.28
2023-02-13T05:52:38.428Z,102064.94
2023-02-13T05:53:18.353Z,102039.72
2023-02-13T05:53:58.433Z,102067.69
2023-02-13T05:54:39.369Z,102048.09
2023-02-13T05:55:19.432Z,102057.81
2023-02-13T05:56:00.622Z,102062.03
2023-02-13T05:56:40.686Z,102065.88
2023-02-13T05:57:20.404Z,102072.69
2023-02-13T05:58:04.426Z,102071.22
2023-02-13T05:58:45.369Z,102064.06
2023-02-13T05:59:25.450Z,102052.63
2023-02-13T06:00:05.498Z,102067.63
2023-02-13T06:01:00.592Z,102071.06
2023-02-13T06:01:54.425Z,102058.22
2023-02-13T06:02:41.405Z,102062.34
2023-02-13T06:03:15.582Z,102045.22
2023-02-13T06:04:04.003Z,102045.63
2023-02-13T06:04:38.418Z,102059.50
2023-02-13T06:05:25.338Z,102054.81
2023-02-13T06:06:00.568Z,102056.81
2023-02-13T06:06:47.401Z,102060.47
2023-02-13T06:07:21.409Z,102056.66
2023-02-13T06:08:01.428Z,102050.81
2023-02-13T06:08:42.492Z,102073.34
2023-02-13T06:09:22.346Z,102063.66
2023-02-13T06:10:02.418Z,102073.06
2023-02-13T06:10:45.160Z,102071.94
2023-02-13T06:11:26.404Z,102071.44
2023-02-13T06:12:06.363Z,102072.34
2023-02-13T06:12:46.387Z,102062.97
2023-02-13T06:13:26.381Z,102069.03
2023-02-13T06:14:06.511Z,102073.06
2023-02-13T06:14:47.382Z,102077.84
2023-02-13T06:15:27.431Z,102071.88
2023-02-13T06:16:07.345Z,102080.63
2023-02-13T06:16:47.444Z,102063.88
2023-02-13T06:17:27.442Z,102073.50
2023-02-13T06:18:07.438Z,102080.19
2023-02-13T06:18:48.402Z,102066.81
2023-02-13T06:19:28.392Z,102079.66
2023-02-13T06:20:08.406Z,102077.50
2023-02-13T06:20:48.472Z,102079.69
2023-02-13T06:21:28.400Z,102076.13
2023-02-13T06:22:08.386Z,102071.59
2023-02-13T06:22:49.346Z,102050.75
2023-02-13T06:23:29.456Z,102073.91
2023-02-13T06:24:11.380Z,102079.47
2023-02-13T06:24:51.428Z,102072.34
2023-02-13T06:25:32.358Z,102083.34
2023-02-13T06:26:14.389Z,102067.19
2023-02-13T06:26:55.370Z,102080.75
2023-02-13T06:27:35.443Z,102076.31
2023-02-13T06:28:16.405Z,102078.88
2023-02-13T06:28:56.388Z,102075.25
2023-02-13T06:29:38.351Z,102067.22
2023-02-13T06:30:19.416Z,102066.50
2023-02-13T06:31:00.715Z,102073.22
2023-02-13T06:31:41.409Z,102080.75
2023-02-13T06:32:21.322Z,102076.44
2023-02-13T06:33:01.415Z,102072.66
2023-02-13T06:33:41.342Z,102075.38
2023-02-13T06:34:21.426Z,102060.19
2023-02-13T06:35:04.550Z,102064.81
2023-02-13T06:35:45.428Z,102073.63
2023-02-13T06:36:25.328Z,102079.00
2023-02-13T06:37:05.445Z,102077.25
2023-02-13T06:37:46.406Z,102071.03
2023-02-13T06:38:26.401Z,102082.63
2023-02-13T06:39:07.396Z,102083.56
2023-02-13T06:39:47.395Z,102061.94
2023-02-13T06:40:27.381Z,102071.47
2023-02-13T06:41:08.432Z,102080.66
2023-02-13T06:41:48.336Z,102084.09
2023-02-13T06:42:42.348Z,102083.22
2023-02-13T06:43:37.126Z,102068.91
2023-02-13T06:44:32.337Z,102069.31
2023-02-13T06:45:27.362Z,102095.63
2023-02-13T06:46:22.476Z,102080.66
2023-02-13T06:47:16.376Z,102079.53
2023-02-13T06:48:10.346Z,102086.53
2023-02-13T06:49:04.319Z,102073.38
2023-02-13T06:49:58.400Z,102078.59
2023-02-13T06:50:45.324Z,102068.75
2023-02-13T06:51:19.470Z,102073.59
2023-02-13T06:52:06.278Z,102075.78
2023-02-13T06:52:40.378Z,102069.47
2023-02-13T06:53:31.336Z,102077.97
2023-02-13T06:54:05.382Z,102073.88
2023-02-13T06:54:52.326Z,102084.63
2023-02-13T06:55:26.442Z,102075.38
2023-02-13T06:56:13.067Z,102074.22
2023-02-13T06:56:53.369Z,102075.50
2023-02-13T06:57:33.286Z,102074.69
2023-02-13T06:58:13.431Z,102087.06
2023-02-13T06:58:53.319Z,102077.59
2023-02-13T06:59:33.386Z,102087.34
2023-02-13T07:00:15.340Z,102058.28
2023-02-13T07:00:56.669Z,102081.75
2023-02-13T07:02:40.346Z,102081.00
2023-02-13T07:03:14.434Z,102076.31
2023-02-13T07:04:01.351Z,102051.91
2023-02-13T07:04:35.402Z,102083.34
2023-02-13T07:05:22.322Z,102076.59
2023-02-13T07:05:56.589Z,102079.81
2023-02-13T07:06:43.297Z,102068.38
2023-02-13T07:07:17.362Z,102085.81
2023-02-13T07:08:05.345Z,102081.16
2023-02-13T07:08:39.386Z,102073.34
2023-02-13T07:09:26.283Z,102087.06
2023-02-13T07:10:00.415Z,102074.81
2023-02-13T07:10:48.325Z,102080.63
2023-02-13T07:11:26.405Z,102093.88
2023-02-13T07:12:14.343Z,102089.00
2023-02-13T07:13:03.639Z,102072.00
2023-02-13T07:13:45.305Z,102089.47
2023-02-13T07:14:25.385Z,102087.06
2023-02-13T07:15:05.280Z,102078.19
2023-02-13T07:15:45.429Z,102080.47
2023-02-13T07:16:26.343Z,102095.13
2023-02-13T07:17:06.381Z,102096.34
2023-02-13T07:17:46.252Z,102096.94
2023-02-13T07:18:26.896Z,102098.97
2023-02-13T07:19:07.317Z,102102.25
2023-02-13T07:19:47.358Z,102106.91
2023-02-13T07:20:28.343Z,102103.88
2023-02-13T07:21:08.343Z,102085.06
2023-02-13T07:21:48.275Z,102103.47
2023-02-13T07:22:28.350Z,102107.69
2023-02-13T07:23:11.273Z,102090.41
2023-02-13T07:23:51.348Z,102097.56
2023-02-13T07:24:32.503Z,102085.72
2023-02-13T07:25:13.356Z,102114.91
2023-02-13T07:25:53.338Z,102099.09
2023-02-13T07:26:33.346Z,102112.06
2023-02-13T07:27:13.296Z,102093.31
2023-02-13T07:27:53.364Z,102114.16
2023-02-13T07:28:35.353Z,102091.91
2023-02-13T07:29:15.346Z,102105.88
2023-02-13T07:29:55.284Z,102099.56
2023-02-13T07:30:36.377Z,102110.91
2023-02-13T07:31:17.348Z,102090.03
2023-02-13T07:31:57.354Z,102113.16
2023-02-13T07:32:38.301Z,102097.28
2023-02-13T07:33:18.373Z,102099.22
2023-02-13T07:33:58.260Z,102117.03
2023-02-13T07:34:41.125Z,102104.88
2023-02-13T07:35:25.285Z,102111.25
2023-02-13T07:36:05.418Z,102105.09
2023-02-13T07:36:46.273Z,102102.13
2023-02-13T07:37:26.313Z,102111.00
2023-02-13T07:38:07.451Z,102117.16
2023-02-13T07:38:47.367Z,102101.03
2023-02-13T07:39:27.276Z,102100.59
2023-02-13T07:40:07.392Z,102106.69
2023-02-13T07:40:48.274Z,102107.25
2023-02-13T07:41:28.306Z,102117.44
2023-02-13T07:42:08.264Z,102116.91
2023-02-13T07:42:48.356Z,102123.22
2023-02-13T07:43:28.267Z,102100.38
2023-02-13T07:44:08.452Z,102108.59
2023-02-13T07:44:49.302Z,102120.94
2023-02-13T07:45:29.367Z,102115.16
2023-02-13T07:46:10.277Z,102094.06
2023-02-13T07:46:50.404Z,102098.31
2023-02-13T07:47:30.305Z,102098.56
2023-02-13T07:48:10.364Z,102115.84
2023-02-13T07:48:51.283Z,102116.59
2023-02-13T07:49:32.315Z,102114.09
2023-02-13T07:50:13.279Z,102107.69
2023-02-13T07:50:53.350Z,102074.22
2023-02-13T07:51:35.334Z,102114.28
2023-02-13T07:52:15.396Z,102091.22
2023-02-13T07:53:07.274Z,102098.28
2023-02-13T07:53:47.347Z,102111.81
2023-02-13T07:54:27.313Z,102100.78
2023-02-13T07:55:07.428Z,102067.69
2023-02-13T07:55:47.264Z,102118.25
2023-02-13T07:56:27.346Z,102102.38
2023-02-13T07:57:08.319Z,102108.75
2023-02-13T07:57:48.333Z,102094.19
2023-02-13T07:58:28.305Z,102106.03
2023-02-13T07:59:08.356Z,102089.72
2023-02-13T07:59:48.299Z,102118.56
2023-02-13T08:00:29.353Z,102110.50
2023-02-13T08:01:20.250Z,102109.25
2023-02-13T08:02:00.311Z,102078.97
2023-02-13T08:02:40.273Z,102109.09
2023-02-13T08:03:20.328Z,102105.47
2023-02-13T08:04:00.294Z,102093.38
2023-02-13T08:04:40.389Z,102105.25
2023-02-13T08:05:21.248Z,102116.22
2023-02-13T08:06:01.323Z,102109.63
2023-02-13T08:06:41.277Z,102109.50
2023-02-13T08:07:23.292Z,102107.56
2023-02-13T08:08:03.270Z,102110.84
2023-02-13T08:08:43.304Z,102109.03
2023-02-13T08:09:46.231Z,102118.31
2023-02-13T08:10:46.293Z,102114.47
2023-02-13T08:11:53.237Z,102096.19
2023-02-13T08:12:34.148Z,102108.50
2023-02-13T08:13:15.304Z,102118.72
2023-02-13T08:13:56.330Z,102113.41
2023-02-13T08:14:36.269Z,102116.25
2023-02-13T08:15:19.288Z,102105.00
2023-02-13T08:15:59.456Z,102118.53
2023-02-13T08:16:40.389Z,102107.63
2023-02-13T08:17:20.280Z,102102.72
2023-02-13T08:18:01.317Z,102093.88
2023-02-13T08:18:41.262Z,102117.84
2023-02-13T08:19:21.289Z,102118.00
2023-02-13T08:20:01.235Z,102101.53
2023-02-13T08:20:41.335Z,102112.88
2023-02-13T08:21:22.248Z,102101.59
2023-02-13T08:22:04.344Z,102113.41
2023-02-13T08:22:46.213Z,102107.03
2023-02-13T08:23:26.887Z,102113.41
2023-02-13T08:24:08.278Z,102114.84
2023-02-13T08:24:48.319Z,102107.84
2023-02-13T08:25:28.264Z,102099.03
2023-02-13T08:26:09.349Z,102102.13
2023-02-13T08:26:50.209Z,102122.09
2023-02-13T08:27:44.238Z,102104.63
2023-02-13T08:28:38.306Z,102112.00
2023-02-13T08:29:25.285Z,102094.00
2023-02-13T08:29:59.288Z,102103.34
2023-02-13T08:30:46.375Z,102113.19
2023-02-13T08:31:20.520Z,102109.78
2023-02-13T08:32:07.335Z,102112.19
2023-02-13T08:32:53.560Z,102079.59
2023-02-13T08:33:41.216Z,102105.00
2023-02-13T08:34:20.267Z,102119.63
2023-02-13T08:35:15.244Z,102088.28
2023-02-13T08:36:04.297Z,102116.38
2023-02-13T08:36:44.215Z,102116.63
2023-02-13T08:37:25.330Z,102093.16
2023-02-13T08:38:12.209Z,102103.72
2023-02-13T08:38:55.270Z,102111.59
2023-02-13T08:39:36.207Z,102119.22
2023-02-13T08:40:24.606Z,102122.53